createdAt,value
2023-05-19T00:00:51.047Z,60
2023-05-19T00:02:49.888Z,60
2023-05-19T00:04:49.566Z,60
2023-05-19T00:06:50.168Z,60
2023-05-19T00:08:49.798Z,60
2023-05-19T00:10:49.357Z,60
2023-05-19T00:12:50.886Z,60
2023-05-19T00:14:49.382Z,61
2023-05-19T00:16:49.966Z,61
2023-05-19T00:18:49.599Z,61
2023-05-19T00:20:50.201Z,61
2023-05-19T00:22:49.842Z,61
2023-05-19T00:24:49.514Z,61
2023-05-19T00:26:50.145Z,61
2023-05-19T00:28:49.737Z,61
2023-05-19T00:30:49.348Z,61
2023-05-19T00:32:49.918Z,61
2023-05-19T00:34:49.587Z,61
2023-05-19T00:36:50.227Z,61
2023-05-19T00:38:49.802Z,61
2023-05-19T00:40:49.461Z,62
2023-05-19T00:42:50.011Z,62
2023-05-19T00:44:49.550Z,62
2023-05-19T00:46:50.236Z,62
2023-05-19T00:48:49.788Z,62
2023-05-19T00:50:49.353Z,62
2023-05-19T00:52:49.900Z,62
2023-05-19T00:54:49.432Z,62
2023-05-19T00:56:50.056Z,62
2023-05-19T00:58:49.670Z,62
2023-05-19T01:00:50.280Z,62
2023-05-19T01:02:49.984Z,62
2023-05-19T01:04:49.690Z,62
2023-05-19T01:06:50.281Z,62
2023-05-19T01:08:49.900Z,62
2023-05-19T01:10:49.469Z,62
2023-05-19T01:12:50.100Z,62
2023-05-19T01:14:49.617Z,62
2023-05-19T01:16:50.377Z,62
2023-05-19T01:18:50.150Z,62
2023-05-19T01:20:49.713Z,62
2023-05-19T01:22:50.241Z,62
2023-05-19T01:24:49.852Z,62
2023-05-19T01:26:49.453Z,62
2023-05-19T01:28:50.020Z,62
2023-05-19T01:30:49.620Z,62
2023-05-19T01:32:50.223Z,62
2023-05-19T01:34:49.872Z,62
2023-05-19T01:36:49.425Z,62
2023-05-19T01:38:50.029Z,62
2023-05-19T01:40:49.686Z,62
2023-05-19T01:42:50.220Z,62
2023-05-19T01:44:49.909Z,62
2023-05-19T01:46:49.572Z,63
2023-05-19T01:48:50.145Z,62
2023-05-19T01:50:49.749Z,62
2023-05-19T01:52:50.310Z,62
2023-05-19T01:54:49.861Z,62
2023-05-19T01:56:49.471Z,63
2023-05-19T01:58:49.987Z,64
2023-05-19T02:00:49.546Z,64
2023-05-19T02:02:50.198Z,64
2023-05-19T02:04:49.843Z,64
2023-05-19T02:06:49.459Z,64
2023-05-19T02:08:50.105Z,64
2023-05-19T02:10:49.690Z,64
2023-05-19T02:12:50.212Z,64
2023-05-19T02:14:49.818Z,63
2023-05-19T02:16:49.468Z,63
2023-05-19T02:18:50.092Z,63
2023-05-19T02:20:49.715Z,64
2023-05-19T02:22:50.252Z,63
2023-05-19T02:24:49.882Z,63
2023-05-19T02:26:49.515Z,63
2023-05-19T02:28:50.089Z,63
2023-05-19T02:30:49.654Z,64
2023-05-19T02:32:50.233Z,64
2023-05-19T02:34:49.915Z,64
2023-05-19T02:36:49.486Z,63
2023-05-19T02:38:50.024Z,63
2023-05-19T02:40:49.586Z,63
2023-05-19T02:42:50.202Z,63
2023-05-19T02:44:49.847Z,63
2023-05-19T02:46:49.614Z,63
2023-05-19T02:48:50.225Z,63
2023-05-19T02:50:49.762Z,63
2023-05-19T02:52:50.273Z,63
2023-05-19T02:54:49.870Z,63
2023-05-19T02:56:49.455Z,63
2023-05-19T02:58:50.061Z,63
2023-05-19T03:00:49.647Z,63
2023-05-19T03:02:50.332Z,63
2023-05-19T03:04:50.039Z,63
2023-05-19T03:06:49.573Z,63
2023-05-19T03:08:50.131Z,63
2023-05-19T03:10:49.725Z,63
2023-05-19T03:12:50.262Z,63
2023-05-19T03:14:49.761Z,63
2023-05-19T03:16:50.524Z,63
2023-05-19T03:18:50.204Z,63
2023-05-19T03:20:49.801Z,63
2023-05-19T03:22:49.356Z,63
2023-05-19T03:24:49.967Z,63
2023-05-19T03:26:49.574Z,63
2023-05-19T03:28:50.161Z,63
2023-05-19T03:30:49.734Z,63
2023-05-19T03:32:50.360Z,62
2023-05-19T03:34:50.040Z,62
2023-05-19T03:36:49.690Z,62
2023-05-19T03:40:49.657Z,63
2023-05-19T03:42:50.242Z,62
2023-05-19T03:44:49.847Z,63
2023-05-19T03:46:49.435Z,63
2023-05-19T03:48:50.182Z,62
2023-05-19T03:50:49.775Z,62
2023-05-19T03:52:49.364Z,62
2023-05-19T03:54:50.021Z,62
2023-05-19T03:56:49.608Z,62
2023-05-19T03:58:50.172Z,62
2023-05-19T04:00:49.733Z,62
2023-05-19T04:02:50.307Z,62
2023-05-19T04:04:50.131Z,62
2023-05-19T04:06:49.771Z,62
2023-05-19T04:08:50.304Z,62
2023-05-19T04:10:49.878Z,62
2023-05-19T04:12:49.485Z,62
2023-05-19T04:14:50.067Z,62
2023-05-19T04:16:49.727Z,62
2023-05-19T04:18:50.340Z,62
2023-05-19T04:20:49.944Z,62
2023-05-19T04:22:49.441Z,62
2023-05-19T04:24:50.002Z,62
2023-05-19T04:26:49.578Z,62
2023-05-19T04:28:50.157Z,62
2023-05-19T04:30:49.787Z,62
2023-05-19T04:32:49.389Z,62
2023-05-19T04:34:50.143Z,62
2023-05-19T04:36:52.422Z,62
2023-05-19T04:38:49.910Z,62
2023-05-19T04:40:49.492Z,62
2023-05-19T04:42:50.002Z,62
2023-05-19T04:44:49.649Z,62
2023-05-19T04:46:50.350Z,62
2023-05-19T04:48:49.940Z,62
2023-05-19T04:50:49.560Z,62
2023-05-19T04:52:50.130Z,62
2023-05-19T04:54:49.704Z,62
2023-05-19T04:56:50.312Z,62
2023-05-19T04:58:49.900Z,62
2023-05-19T05:00:49.439Z,62
2023-05-19T05:02:50.186Z,62
2023-05-19T05:04:49.910Z,62
2023-05-19T05:06:49.539Z,61
2023-05-19T05:08:50.118Z,61
2023-05-19T05:10:50.210Z,61
2023-05-19T05:12:49.871Z,61
2023-05-19T05:14:49.448Z,61
2023-05-19T05:16:50.051Z,61
2023-05-19T05:18:49.700Z,61
2023-05-19T05:20:50.254Z,61
2023-05-19T05:22:49.853Z,61
2023-05-19T05:24:49.447Z,61
2023-05-19T05:26:50.019Z,61
2023-05-19T05:28:49.621Z,61
2023-05-19T05:30:50.204Z,61
2023-05-19T05:32:49.843Z,61
2023-05-19T05:34:49.502Z,61
2023-05-19T05:36:50.116Z,61
2023-05-19T05:38:49.727Z,61
2023-05-19T05:40:50.265Z,61
2023-05-19T05:42:49.874Z,61
2023-05-19T05:44:49.493Z,61
2023-05-19T05:46:50.082Z,61
2023-05-19T05:48:49.721Z,61
2023-05-19T05:50:50.274Z,60
2023-05-19T05:52:49.860Z,61
2023-05-19T05:54:49.382Z,60
2023-05-19T05:56:49.985Z,60
2023-05-19T05:58:49.632Z,60
2023-05-19T06:00:50.199Z,60
2023-05-19T06:02:49.790Z,60
2023-05-19T06:04:49.412Z,60
2023-05-19T06:06:50.010Z,60
2023-05-19T06:08:49.579Z,60
2023-05-19T06:10:50.186Z,60
2023-05-19T06:12:49.768Z,60
2023-05-19T06:14:50.328Z,60
2023-05-19T06:16:49.965Z,59
2023-05-19T06:18:49.584Z,60
2023-05-19T06:20:50.163Z,60
2023-05-19T06:22:49.674Z,60
2023-05-19T06:24:50.262Z,59
2023-05-19T06:26:49.913Z,59
2023-05-19T06:28:49.458Z,59
2023-05-19T06:30:50.014Z,59
2023-05-19T06:32:49.693Z,59
2023-05-19T06:34:49.342Z,59
2023-05-19T06:36:49.991Z,59
2023-05-19T06:38:49.509Z,59
2023-05-19T06:40:50.057Z,59
2023-05-19T06:42:49.649Z,58
2023-05-19T06:44:50.229Z,59
2023-05-19T06:46:49.919Z,59
2023-05-19T06:48:49.583Z,59
2023-05-19T06:50:50.160Z,59
2023-05-19T06:52:49.765Z,58
2023-05-19T06:54:50.294Z,58
2023-05-19T06:56:49.938Z,58
2023-05-19T06:58:49.545Z,58
2023-05-19T07:00:50.128Z,57
2023-05-19T07:02:49.748Z,58
2023-05-19T07:04:49.459Z,58
2023-05-19T07:06:50.073Z,58
2023-05-19T07:08:49.700Z,57
2023-05-19T07:10:49.791Z,57
2023-05-19T07:12:49.372Z,57
2023-05-19T07:14:49.982Z,57
2023-05-19T07:16:49.694Z,57
2023-05-19T07:18:50.331Z,57
2023-05-19T07:20:49.985Z,57
2023-05-19T07:22:49.520Z,57
2023-05-19T07:24:50.105Z,57
2023-05-19T07:26:49.787Z,57
2023-05-19T07:28:49.354Z,56
2023-05-19T07:30:49.923Z,56
2023-05-19T07:32:49.641Z,56
2023-05-19T07:34:50.341Z,56
2023-05-19T07:36:50.004Z,55
2023-05-19T07:38:49.677Z,56
2023-05-19T07:40:50.220Z,56
2023-05-19T07:42:49.900Z,56
2023-05-19T07:44:49.480Z,55
2023-05-19T07:46:50.140Z,55
2023-05-19T07:48:49.799Z,55
2023-05-19T07:50:49.437Z,55
2023-05-19T07:52:49.994Z,56
2023-05-19T07:54:49.588Z,56
2023-05-19T07:56:50.186Z,55
2023-05-19T07:58:49.782Z,53
2023-05-19T08:00:49.381Z,54
2023-05-19T08:02:50.067Z,54
2023-05-19T08:04:49.800Z,54
2023-05-19T08:06:49.501Z,54
2023-05-19T08:08:50.091Z,54
2023-05-19T08:10:49.692Z,55
2023-05-19T08:12:50.224Z,55
2023-05-19T08:14:49.877Z,54
2023-05-19T08:16:49.431Z,54
2023-05-19T08:18:50.040Z,53
2023-05-19T08:20:49.589Z,53
2023-05-19T08:22:50.163Z,53
2023-05-19T08:24:49.791Z,53
2023-05-19T08:26:49.349Z,53
2023-05-19T08:28:49.957Z,53
2023-05-19T08:30:49.630Z,53
2023-05-19T08:32:50.188Z,53
2023-05-19T08:34:49.845Z,53
2023-05-19T08:36:49.571Z,52
2023-05-19T08:38:50.153Z,52
2023-05-19T08:40:49.749Z,52
2023-05-19T08:42:49.335Z,52
2023-05-19T08:44:49.936Z,53
2023-05-19T08:46:49.632Z,52
2023-05-19T08:48:50.300Z,52
2023-05-19T08:50:49.914Z,52
2023-05-19T08:52:51.840Z,52
2023-05-19T08:54:49.500Z,51
2023-05-19T08:56:50.145Z,51
2023-05-19T08:58:49.676Z,51
2023-05-19T09:00:50.248Z,52
2023-05-19T09:02:59.895Z,52
2023-05-19T09:04:49.496Z,50
2023-05-19T09:06:50.174Z,51
2023-05-19T09:08:49.785Z,51
2023-05-19T09:10:49.423Z,51
2023-05-19T09:12:50.060Z,51
2023-05-19T09:14:49.724Z,51
2023-05-19T09:16:49.390Z,51
2023-05-19T09:18:50.149Z,51
2023-05-19T09:20:49.788Z,51
2023-05-19T09:22:49.408Z,50
2023-05-19T09:24:49.932Z,50
2023-05-19T09:26:49.532Z,50
2023-05-19T09:28:50.190Z,50
2023-05-19T09:30:49.829Z,50
2023-05-19T09:32:49.386Z,51
2023-05-19T09:34:50.107Z,51
2023-05-19T09:36:49.762Z,51
2023-05-19T09:38:50.326Z,51
2023-05-19T09:40:49.961Z,49
2023-05-19T09:42:49.481Z,49
2023-05-19T09:44:50.079Z,49
2023-05-19T09:46:49.775Z,49
2023-05-19T09:48:50.322Z,50
2023-05-19T09:50:49.892Z,49
2023-05-19T09:52:49.408Z,48
2023-05-19T09:54:49.993Z,48
2023-05-19T09:56:49.588Z,48
2023-05-19T09:58:50.178Z,47
2023-05-19T10:00:49.729Z,47
2023-05-19T10:02:50.432Z,47
2023-05-19T10:04:50.175Z,47
2023-05-19T10:06:49.718Z,49
2023-05-19T10:08:50.269Z,48
2023-05-19T10:10:49.814Z,48
2023-05-19T10:12:49.392Z,48
2023-05-19T10:14:49.972Z,48
2023-05-19T10:16:49.721Z,47
2023-05-19T10:18:49.415Z,47
2023-05-19T10:20:50.102Z,48
2023-05-19T10:22:49.915Z,47
2023-05-19T10:24:49.460Z,47
2023-05-19T10:26:50.099Z,47
2023-05-19T10:28:49.891Z,48
2023-05-19T10:30:49.520Z,48
2023-05-19T10:32:50.190Z,47
2023-05-19T10:34:49.853Z,47
2023-05-19T10:36:49.427Z,47
2023-05-19T10:38:50.115Z,46
2023-05-19T10:40:49.718Z,46
2023-05-19T10:42:50.229Z,47
2023-05-19T10:44:49.867Z,47
2023-05-19T10:46:49.470Z,46
2023-05-19T10:48:50.088Z,45
2023-05-19T10:50:49.808Z,45
2023-05-19T10:52:49.438Z,46
2023-05-19T10:54:50.024Z,47
2023-05-19T10:56:49.674Z,46
2023-05-19T10:58:50.279Z,46
2023-05-19T11:00:49.939Z,46
2023-05-19T11:02:49.575Z,46
2023-05-19T11:04:51.678Z,45
2023-05-19T11:06:49.730Z,45
2023-05-19T11:08:50.301Z,46
2023-05-19T11:10:49.868Z,45
2023-05-19T11:12:49.493Z,45
2023-05-19T11:14:50.054Z,45
2023-05-19T11:16:49.734Z,45
2023-05-19T11:18:49.431Z,46
2023-05-19T11:20:50.051Z,46
2023-05-19T11:22:49.660Z,45
2023-05-19T11:24:50.340Z,45
2023-05-19T11:26:50.009Z,45
2023-05-19T11:28:49.544Z,45
2023-05-19T11:30:50.172Z,45
2023-05-19T11:32:49.726Z,45
2023-05-19T11:34:50.323Z,44
2023-05-19T11:36:49.920Z,44
2023-05-19T11:38:49.494Z,44
2023-05-19T11:40:50.079Z,44
2023-05-19T11:42:49.610Z,44
2023-05-19T11:44:50.185Z,44
2023-05-19T11:46:49.801Z,44
2023-05-19T11:48:50.309Z,44
2023-05-19T11:50:49.903Z,45
2023-05-19T11:52:49.504Z,44
2023-05-19T11:54:50.065Z,44
2023-05-19T11:56:49.628Z,44
2023-05-19T11:58:50.225Z,44
2023-05-19T12:00:49.832Z,44
2023-05-19T12:02:49.544Z,43
2023-05-19T12:04:50.342Z,44
2023-05-19T12:06:49.989Z,44
2023-05-19T12:08:49.514Z,43
2023-05-19T12:10:50.118Z,43
2023-05-19T12:12:49.941Z,43
2023-05-19T12:14:49.594Z,43
2023-05-19T12:16:50.310Z,43
2023-05-19T12:18:49.955Z,43
2023-05-19T12:20:49.602Z,42
2023-05-19T12:22:50.245Z,42
2023-05-19T12:24:49.906Z,43
2023-05-19T12:26:49.506Z,43
2023-05-19T12:28:50.123Z,43
2023-05-19T12:30:49.690Z,43
2023-05-19T12:32:50.329Z,43
2023-05-19T12:34:49.992Z,43
2023-05-19T12:36:49.548Z,42
2023-05-19T12:38:49.355Z,42
2023-05-19T12:40:49.921Z,42
2023-05-19T12:42:49.544Z,43
2023-05-19T12:44:50.150Z,43
2023-05-19T12:46:49.685Z,43
2023-05-19T12:48:50.340Z,43
2023-05-19T12:50:49.952Z,43
2023-05-19T12:52:49.580Z,43
2023-05-19T12:54:50.231Z,43
2023-05-19T12:56:50.056Z,44
2023-05-19T12:58:49.681Z,43
2023-05-19T13:00:50.385Z,42
2023-05-19T13:02:50.139Z,42
2023-05-19T13:04:49.849Z,43
2023-05-19T13:06:49.599Z,43
2023-05-19T13:08:50.201Z,42
2023-05-19T13:10:49.880Z,42
2023-05-19T13:12:49.492Z,41
2023-05-19T13:14:50.165Z,41
2023-05-19T13:16:49.796Z,41
2023-05-19T13:18:49.575Z,41
2023-05-19T13:20:50.356Z,41
2023-05-19T13:22:49.966Z,41
2023-05-19T13:24:49.582Z,41
2023-05-19T13:26:49.346Z,41
2023-05-19T13:28:49.897Z,42
2023-05-19T13:30:49.590Z,42
2023-05-19T13:32:50.290Z,41
2023-05-19T13:34:49.959Z,41
2023-05-19T13:36:49.659Z,40
2023-05-19T13:38:50.248Z,41
2023-05-19T13:40:49.938Z,41
2023-05-19T13:42:49.569Z,40
2023-05-19T13:44:50.178Z,41
2023-05-19T13:46:51.645Z,40
2023-05-19T13:48:49.907Z,40
2023-05-19T13:50:49.454Z,40
2023-05-19T13:52:50.021Z,40
2023-05-19T13:54:49.585Z,39
2023-05-19T13:56:50.257Z,39
2023-05-19T13:58:49.912Z,38
2023-05-19T14:00:49.494Z,39
2023-05-19T14:02:50.156Z,39
2023-05-19T14:04:49.962Z,38
2023-05-19T14:06:49.590Z,39
2023-05-19T14:08:50.195Z,39
2023-05-19T14:10:49.843Z,39
2023-05-19T14:13:18.376Z,39
2023-05-19T14:14:50.247Z,38
2023-05-19T14:16:50.001Z,39
2023-05-19T14:18:49.646Z,39
2023-05-19T14:20:49.367Z,39
2023-05-19T14:22:50.135Z,39
2023-05-19T14:24:49.838Z,39
2023-05-19T14:26:49.535Z,39
2023-05-19T14:28:50.241Z,39
2023-05-19T14:30:49.881Z,40
2023-05-19T14:32:49.506Z,40
2023-05-19T14:34:50.313Z,40
2023-05-19T14:36:49.877Z,40
2023-05-19T14:38:49.406Z,40
2023-05-19T14:40:50.008Z,40
2023-05-19T14:42:49.615Z,40
2023-05-19T14:44:50.255Z,40
2023-05-19T14:46:49.852Z,40
2023-05-19T14:48:49.565Z,41
2023-05-19T14:50:50.145Z,40
2023-05-19T14:52:49.708Z,40
2023-05-19T14:54:50.331Z,40
2023-05-19T14:56:49.913Z,40
2023-05-19T14:58:49.470Z,40
2023-05-19T15:00:50.127Z,39
2023-05-19T15:02:49.739Z,40
2023-05-19T15:04:49.382Z,39
2023-05-19T15:06:58.066Z,39
2023-05-19T15:08:49.388Z,40
2023-05-19T15:10:49.976Z,40
2023-05-19T15:12:49.525Z,40
2023-05-19T15:14:50.121Z,40
2023-05-19T15:16:49.834Z,40
2023-05-19T15:18:49.443Z,40
2023-05-19T15:20:50.056Z,41
2023-05-19T15:22:49.593Z,41
2023-05-19T15:24:50.182Z,41
2023-05-19T15:26:49.803Z,41
2023-05-19T15:28:49.360Z,41
2023-05-19T15:30:50.014Z,41
2023-05-19T15:32:49.732Z,41
2023-05-19T15:34:49.359Z,42
2023-05-19T15:36:49.904Z,42
2023-05-19T15:38:49.425Z,42
2023-05-19T15:40:49.969Z,42
2023-05-19T15:42:49.498Z,42
2023-05-19T15:44:50.098Z,42
2023-05-19T15:46:49.808Z,42
2023-05-19T15:48:49.440Z,43
2023-05-19T15:50:50.017Z,43
2023-05-19T15:52:49.597Z,43
2023-05-19T15:54:50.202Z,43
2023-05-19T15:56:49.826Z,43
2023-05-19T15:58:49.495Z,43
2023-05-19T16:00:50.080Z,44
2023-05-19T16:02:49.802Z,44
2023-05-19T16:04:49.483Z,44
2023-05-19T16:06:50.062Z,45
2023-05-19T16:08:49.688Z,45
2023-05-19T16:10:50.273Z,45
2023-05-19T16:12:49.886Z,45
2023-05-19T16:14:49.480Z,45
2023-05-19T16:16:50.102Z,45
2023-05-19T16:18:49.769Z,45
2023-05-19T16:20:49.383Z,45
2023-05-19T16:22:49.916Z,45
2023-05-19T16:24:49.697Z,45
2023-05-19T16:26:50.312Z,45
2023-05-19T16:28:49.858Z,45
2023-05-19T16:30:49.432Z,45
2023-05-19T16:32:50.034Z,45
2023-05-19T16:34:49.678Z,45
2023-05-19T16:36:50.300Z,46
2023-05-19T16:38:49.868Z,46
2023-05-19T16:40:49.484Z,46
2023-05-19T16:42:50.114Z,46
2023-05-19T16:44:49.680Z,46
2023-05-19T16:46:50.266Z,46
2023-05-19T16:48:49.825Z,46
2023-05-19T16:50:49.450Z,46
2023-05-19T16:52:50.040Z,46
2023-05-19T16:54:49.623Z,47
2023-05-19T16:56:50.129Z,46
2023-05-19T16:58:49.666Z,46
2023-05-19T17:00:50.243Z,46
2023-05-19T17:02:50.035Z,46
2023-05-19T17:04:49.682Z,47
2023-05-19T17:06:50.277Z,46
2023-05-19T17:08:49.860Z,46
2023-05-19T17:10:49.418Z,45
2023-05-19T17:12:49.998Z,45
2023-05-19T17:14:49.585Z,42.6
2023-05-19T17:16:50.165Z,43.2
2023-05-19T17:18:49.734Z,43.6
2023-05-19T17:20:49.402Z,43.5
2023-05-19T17:22:49.978Z,43.8
2023-05-19T17:24:49.554Z,44.3
2023-05-19T17:26:50.169Z,44.7
2023-05-19T17:28:49.741Z,45.2
2023-05-19T17:30:50.335Z,45.1
2023-05-19T17:32:50.151Z,45.8
2023-05-19T17:34:49.850Z,45.6
2023-05-19T17:36:49.461Z,45.6
2023-05-19T17:38:50.013Z,46.2
2023-05-19T17:40:49.540Z,46.4
2023-05-19T17:42:50.160Z,46.7
2023-05-19T17:44:49.745Z,47.0
2023-05-19T17:46:50.439Z,46.7
2023-05-19T17:48:50.109Z,47.6
2023-05-19T17:50:49.690Z,47.4
2023-05-19T17:52:50.195Z,47.8
2023-05-19T17:54:49.786Z,48.0
2023-05-19T17:56:49.463Z,48.2
2023-05-19T17:58:50.104Z,51.0
2023-05-19T18:00:49.815Z,50
2023-05-19T18:02:49.539Z,50
2023-05-19T18:04:50.193Z,51
2023-05-19T18:06:49.767Z,51
2023-05-19T18:08:50.320Z,51
2023-05-19T18:10:49.964Z,48.6
2023-05-19T18:12:49.518Z,51
2023-05-19T18:14:50.113Z,51
2023-05-19T18:16:49.942Z,51
2023-05-19T18:18:49.562Z,52
2023-05-19T18:20:50.089Z,52
2023-05-19T18:22:49.772Z,52
2023-05-19T18:24:50.276Z,52
2023-05-19T18:26:49.866Z,52
2023-05-19T18:28:49.372Z,52
2023-05-19T18:30:49.950Z,53
2023-05-19T18:32:49.518Z,53
2023-05-19T18:34:50.150Z,53
2023-05-19T18:36:49.737Z,53
2023-05-19T18:38:50.309Z,53
2023-05-19T18:40:49.852Z,53
2023-05-19T18:42:49.417Z,53
2023-05-19T18:44:49.924Z,53
2023-05-19T18:46:49.548Z,54
2023-05-19T18:48:50.166Z,54
2023-05-19T18:50:49.700Z,54
2023-05-19T18:52:50.252Z,54
2023-05-19T18:54:49.766Z,54
2023-05-19T18:56:49.356Z,54
2023-05-19T18:58:49.912Z,54
2023-05-19T19:00:49.593Z,55
2023-05-19T19:02:50.146Z,55
2023-05-19T19:04:49.835Z,55
2023-05-19T19:06:49.504Z,55
2023-05-19T19:08:50.083Z,56
2023-05-19T19:10:49.606Z,56
2023-05-19T19:12:50.222Z,56
2023-05-19T19:14:49.858Z,56
2023-05-19T19:16:49.540Z,56
2023-05-19T19:18:50.325Z,57
2023-05-19T19:20:49.988Z,56
2023-05-19T19:22:49.558Z,54.6
2023-05-19T19:24:50.099Z,57
2023-05-19T19:26:49.710Z,57
2023-05-19T19:28:50.277Z,55.2
2023-05-19T19:30:49.890Z,57
2023-05-19T19:32:49.500Z,55.7
2023-05-19T19:34:50.213Z,57
2023-05-19T19:36:49.826Z,56.2
2023-05-19T19:38:49.412Z,56.6
2023-05-19T19:40:49.956Z,56.7
2023-05-19T19:42:49.477Z,57.3
2023-05-19T19:44:49.997Z,58
2023-05-19T19:46:49.621Z,57.7
2023-05-19T19:48:50.181Z,57.7
2023-05-19T19:50:50.651Z,58.1
2023-05-19T19:52:50.285Z,58.4
2023-05-19T19:54:49.862Z,58.7
2023-05-19T19:56:49.455Z,59.0
2023-05-19T19:58:50.048Z,58.9
2023-05-19T20:00:49.589Z,59.1
2023-05-19T20:03:02.736Z,59.3
2023-05-19T20:04:49.660Z,60
2023-05-19T20:06:50.227Z,59
2023-05-19T20:08:49.909Z,59
2023-05-19T20:10:49.496Z,59
2023-05-19T20:12:50.056Z,60.6
2023-05-19T20:14:49.640Z,60.8
2023-05-19T20:16:50.391Z,60
2023-05-19T20:18:50.139Z,60
2023-05-19T20:20:49.708Z,60
2023-05-19T20:22:50.182Z,60
2023-05-19T20:24:49.766Z,60
2023-05-19T20:26:49.403Z,61.7
2023-05-19T20:28:49.919Z,61.8
2023-05-19T20:30:49.530Z,60
2023-05-19T20:32:50.186Z,60
2023-05-19T20:34:49.844Z,61
2023-05-19T20:36:49.484Z,60
2023-05-19T20:38:50.037Z,60
2023-05-19T20:40:49.619Z,60
2023-05-19T20:42:50.285Z,60
2023-05-19T20:44:49.848Z,60
2023-05-19T20:46:49.420Z,60
2023-05-19T20:48:50.007Z,62
2023-05-19T20:50:49.582Z,62
2023-05-19T20:52:50.148Z,61
2023-05-19T20:54:49.761Z,61
2023-05-19T20:56:49.427Z,62
2023-05-19T20:58:49.997Z,63
2023-05-19T21:00:49.777Z,63
2023-05-19T21:02:49.413Z,63
2023-05-19T21:04:50.171Z,63
2023-05-19T21:06:49.843Z,62
2023-05-19T21:08:49.512Z,62
2023-05-19T21:10:50.044Z,63
2023-05-19T21:12:49.619Z,62
2023-05-19T21:14:50.157Z,62
2023-05-19T21:16:49.793Z,62
2023-05-19T21:18:49.436Z,63
2023-05-19T21:20:50.058Z,63
2023-05-19T21:22:49.625Z,64
2023-05-19T21:24:50.196Z,64
2023-05-19T21:26:49.728Z,64
2023-05-19T21:28:50.218Z,63
2023-05-19T21:30:49.908Z,63
2023-05-19T21:32:49.552Z,63
2023-05-19T21:34:50.142Z,64
2023-05-19T21:36:50.043Z,64
2023-05-19T21:38:49.633Z,64
2023-05-19T21:40:50.151Z,63
2023-05-19T21:42:49.842Z,63
2023-05-19T21:44:49.404Z,63
2023-05-19T21:46:50.071Z,63
2023-05-19T21:48:49.774Z,64
2023-05-19T21:50:49.334Z,63
2023-05-19T21:52:49.907Z,64
2023-05-19T21:54:49.418Z,64
2023-05-19T21:56:49.997Z,64
2023-05-19T21:58:49.503Z,63
2023-05-19T22:00:50.034Z,63
2023-05-19T22:02:49.850Z,64
2023-05-19T22:04:49.627Z,64
2023-05-19T22:06:50.248Z,65
2023-05-19T22:08:49.862Z,64
2023-05-19T22:10:49.375Z,64
2023-05-19T22:12:50.028Z,64
2023-05-19T22:14:49.612Z,64
2023-05-19T22:16:50.265Z,64
2023-05-19T22:18:49.926Z,64
2023-05-19T22:20:49.510Z,64
2023-05-19T22:22:50.077Z,64
2023-05-19T22:24:49.657Z,64
2023-05-19T22:26:50.222Z,64
2023-05-19T22:28:49.758Z,64
2023-05-19T22:30:49.423Z,65
2023-05-19T22:32:49.961Z,65
2023-05-19T22:34:49.775Z,66
2023-05-19T22:36:49.398Z,65
2023-05-19T22:38:49.971Z,65
2023-05-19T22:40:49.500Z,65
2023-05-19T22:42:50.088Z,65
2023-05-19T22:44:49.600Z,66
2023-05-19T22:46:50.160Z,66
2023-05-19T22:48:49.659Z,67
2023-05-19T22:50:50.195Z,67
2023-05-19T22:52:49.741Z,66
2023-05-19T22:54:50.280Z,66
2023-05-19T22:56:49.864Z,67
2023-05-19T22:58:49.443Z,67
2023-05-19T23:00:50.087Z,67
2023-05-19T23:02:49.790Z,66
2023-05-19T23:04:49.385Z,67
2023-05-19T23:06:49.950Z,67
2023-05-19T23:08:49.498Z,67
2023-05-19T23:10:50.048Z,67
2023-05-19T23:12:49.654Z,67
2023-05-19T23:14:50.225Z,66
2023-05-19T23:16:49.961Z,67
2023-05-19T23:18:49.545Z,67
2023-05-19T23:20:50.214Z,67
2023-05-19T23:22:49.901Z,67
2023-05-19T23:24:49.462Z,67
2023-05-19T23:26:50.116Z,68
2023-05-19T23:28:49.708Z,68
2023-05-19T23:30:50.342Z,68
2023-05-19T23:32:49.980Z,68
2023-05-19T23:34:49.716Z,67
2023-05-19T23:36:50.367Z,67
2023-05-19T23:38:49.951Z,67
2023-05-19T23:40:49.651Z,67
2023-05-19T23:42:50.240Z,67
2023-05-19T23:44:49.786Z,67
2023-05-19T23:46:49.408Z,67
2023-05-19T23:48:50.101Z,67
2023-05-19T23:50:49.729Z,68
2023-05-19T23:52:50.259Z,68
2023-05-19T23:54:49.832Z,68
2023-05-19T23:56:49.400Z,68
2023-05-19T23:58:50.080Z,67
